sensor_id;sensor_type;location;lat;lon;timestamp;P1;durP1;ratioP1;P2;durP2;ratioP2
7807;SDS011;3949;49.254;8.894;2024-03-23T00:53:33;5.50;;;4.90;;
7807;SDS011;3949;49.254;8.894;2024-03-23T00:55:59;5.60;;;4.80;;
7807;SDS011;3949;49.254;8.894;2024-03-23T00:58:25;6.60;;;5.80;;
7807;SDS011;3949;49.254;8.894;2024-03-23T01:00:51;6.60;;;5.57;;
7807;SDS011;3949;49.254;8.894;2024-03-23T01:03:17;5.87;;;5.20;;
7807;SDS011;3949;49.254;8.894;2024-03-23T01:05:43;5.40;;;4.90;;
7807;SDS011;3949;49.254;8.894;2024-03-23T01:08:09;5.77;;;4.80;;
7807;SDS011;3949;49.254;8.894;2024-03-23T01:10:35;6.50;;;5.10;;
7807;SDS011;3949;49.254;8.894;2024-03-23T01:13:01;5.90;;;5.30;;
7807;SDS011;3949;49.254;8.894;2024-03-23T01:15:29;7.03;;;6.33;;
7807;SDS011;3949;49.254;8.894;2024-03-23T01:17:55;10.30;;;6.73;;
7807;SDS011;3949;49.254;8.894;2024-03-23T01:20:21;10.33;;;7.97;;
7807;SDS011;3949;49.254;8.894;2024-03-23T01:22:49;13.13;;;9.33;;
7807;SDS011;3949;49.254;8.894;2024-03-23T01:25:15;13.33;;;10.03;;
7807;SDS011;3949;49.254;8.894;2024-03-23T01:27:41;11.87;;;9.10;;
7807;SDS011;3949;49.254;8.894;2024-03-23T01:30:07;10.20;;;8.23;;
7807;SDS011;3949;49.254;8.894;2024-03-23T01:32:36;8.50;;;7.17;;
7807;SDS011;3949;49.254;8.894;2024-03-23T01:35:02;10.87;;;7.73;;
7807;SDS011;3949;49.254;8.894;2024-03-23T01:37:31;9.83;;;7.60;;
7807;SDS011;3949;49.254;8.894;2024-03-23T01:39:59;11.43;;;8.70;;
7807;SDS011;3949;49.254;8.894;2024-03-23T01:42:25;11.10;;;8.53;;
7807;SDS011;3949;49.254;8.894;2024-03-23T01:44:51;8.53;;;6.57;;
7807;SDS011;3949;49.254;8.894;2024-03-23T01:47:17;6.77;;;6.07;;
7807;SDS011;3949;49.254;8.894;2024-03-23T01:49:43;7.90;;;6.83;;
7807;SDS011;3949;49.254;8.894;2024-03-23T01:52:09;9.00;;;8.00;;
7807;SDS011;3949;49.254;8.894;2024-03-23T01:54:35;7.77;;;6.97;;
7807;SDS011;3949;49.254;8.894;2024-03-23T01:57:01;7.43;;;5.87;;
7807;SDS011;3949;49.254;8.894;2024-03-23T01:59:27;6.83;;;6.13;;
7807;SDS011;3949;49.254;8.894;2024-03-23T02:01:53;6.33;;;5.13;;
7807;SDS011;3949;49.254;8.894;2024-03-23T02:04:19;7.10;;;5.30;;
7807;SDS011;3949;49.254;8.894;2024-03-23T02:06:45;5.47;;;4.97;;
7807;SDS011;3949;49.254;8.894;2024-03-23T02:09:11;5.90;;;5.30;;
7807;SDS011;3949;49.254;8.894;2024-03-23T02:11:37;7.30;;;5.30;;
7807;SDS011;3949;49.254;8.894;2024-03-23T02:14:03;6.40;;;5.67;;
7807;SDS011;3949;49.254;8.894;2024-03-23T02:16:32;5.07;;;4.67;;
7807;SDS011;3949;49.254;8.894;2024-03-23T02:18:58;5.20;;;4.70;;
7807;SDS011;3949;49.254;8.894;2024-03-23T02:21:24;5.87;;;4.60;;
7807;SDS011;3949;49.254;8.894;2024-03-23T02:23:52;5.17;;;3.73;;
7807;SDS011;3949;49.254;8.894;2024-03-23T02:26:18;5.70;;;3.23;;
7807;SDS011;3949;49.254;8.894;2024-03-23T02:28:44;4.47;;;3.27;;
7807;SDS011;3949;49.254;8.894;2024-03-23T02:31:10;3.27;;;2.97;;
7807;SDS011;3949;49.254;8.894;2024-03-23T02:33:36;3.70;;;3.10;;
7807;SDS011;3949;49.254;8.894;2024-03-23T02:36:03;4.87;;;3.53;;
7807;SDS011;3949;49.254;8.894;2024-03-23T02:38:29;3.70;;;2.80;;
7807;SDS011;3949;49.254;8.894;2024-03-23T02:41:00;3.40;;;3.00;;
7807;SDS011;3949;49.254;8.894;2024-03-23T02:43:26;4.80;;;3.17;;
7807;SDS011;3949;49.254;8.894;2024-03-23T02:45:52;3.30;;;3.00;;
7807;SDS011;3949;49.254;8.894;2024-03-23T02:48:18;3.20;;;2.90;;
7807;SDS011;3949;49.254;8.894;2024-03-23T02:50:44;3.70;;;3.27;;
7807;SDS011;3949;49.254;8.894;2024-03-23T02:53:10;4.10;;;3.40;;
7807;SDS011;3949;49.254;8.894;2024-03-23T02:55:36;4.87;;;3.63;;
7807;SDS011;3949;49.254;8.894;2024-03-23T02:58:02;3.87;;;3.50;;
7807;SDS011;3949;49.254;8.894;2024-03-23T03:00:28;4.83;;;3.97;;
7807;SDS011;3949;49.254;8.894;2024-03-23T03:02:57;4.43;;;3.93;;
7807;SDS011;3949;49.254;8.894;2024-03-23T03:05:23;4.37;;;4.00;;
7807;SDS011;3949;49.254;8.894;2024-03-23T03:07:51;4.63;;;3.70;;
7807;SDS011;3949;49.254;8.894;2024-03-23T03:10:17;4.07;;;3.57;;
7807;SDS011;3949;49.254;8.894;2024-03-23T03:12:43;5.93;;;4.03;;
7807;SDS011;3949;49.254;8.894;2024-03-23T03:15:12;4.30;;;3.90;;
7807;SDS011;3949;49.254;8.894;2024-03-23T03:17:41;4.97;;;3.83;;
7807;SDS011;3949;49.254;8.894;2024-03-23T03:20:07;4.53;;;4.00;;
7807;SDS011;3949;49.254;8.894;2024-03-23T03:22:38;3.97;;;3.67;;
7807;SDS011;3949;49.254;8.894;2024-03-23T03:25:04;5.80;;;3.80;;
7807;SDS011;3949;49.254;8.894;2024-03-23T03:27:31;4.40;;;3.67;;
7807;SDS011;3949;49.254;8.894;2024-03-23T03:29:57;5.57;;;4.67;;
7807;SDS011;3949;49.254;8.894;2024-03-23T03:32:25;4.83;;;4.10;;
7807;SDS011;3949;49.254;8.894;2024-03-23T03:34:51;7.27;;;4.40;;
7807;SDS011;3949;49.254;8.894;2024-03-23T03:37:17;5.53;;;4.47;;
7807;SDS011;3949;49.254;8.894;2024-03-23T03:39:43;5.10;;;4.50;;
7807;SDS011;3949;49.254;8.894;2024-03-23T03:42:09;5.67;;;4.80;;
7807;SDS011;3949;49.254;8.894;2024-03-23T03:44:36;5.33;;;4.40;;
7807;SDS011;3949;49.254;8.894;2024-03-23T03:47:04;5.60;;;4.53;;
7807;SDS011;3949;49.254;8.894;2024-03-23T03:49:30;5.17;;;4.50;;
7807;SDS011;3949;49.254;8.894;2024-03-23T03:51:56;6.17;;;4.80;;
7807;SDS011;3949;49.254;8.894;2024-03-23T03:54:22;6.87;;;4.70;;
7807;SDS011;3949;49.254;8.894;2024-03-23T03:56:48;6.70;;;4.37;;
7807;SDS011;3949;49.254;8.894;2024-03-23T03:59:17;7.07;;;4.97;;
7807;SDS011;3949;49.254;8.894;2024-03-23T04:01:43;6.43;;;5.37;;
7807;SDS011;3949;49.254;8.894;2024-03-23T04:04:09;5.90;;;5.30;;
7807;SDS011;3949;49.254;8.894;2024-03-23T04:06:35;7.23;;;5.20;;
7807;SDS011;3949;49.254;8.894;2024-03-23T04:09:01;6.80;;;5.40;;
7807;SDS011;3949;49.254;8.894;2024-03-23T04:11:27;8.17;;;5.73;;
7807;SDS011;3949;49.254;8.894;2024-03-23T04:13:53;6.67;;;5.67;;
7807;SDS011;3949;49.254;8.894;2024-03-23T04:16:28;6.13;;;5.53;;
7807;SDS011;3949;49.254;8.894;2024-03-23T04:18:54;5.97;;;5.37;;
7807;SDS011;3949;49.254;8.894;2024-03-23T04:21:21;6.00;;;5.40;;
7807;SDS011;3949;49.254;8.894;2024-03-23T04:23:47;6.47;;;5.50;;
7807;SDS011;3949;49.254;8.894;2024-03-23T04:26:14;6.10;;;5.50;;
7807;SDS011;3949;49.254;8.894;2024-03-23T04:28:43;6.73;;;5.63;;
7807;SDS011;3949;49.254;8.894;2024-03-23T04:31:09;7.60;;;6.30;;
7807;SDS011;3949;49.254;8.894;2024-03-23T04:33:35;6.93;;;5.57;;
7807;SDS011;3949;49.254;8.894;2024-03-23T04:36:01;8.93;;;7.07;;
7807;SDS011;3949;49.254;8.894;2024-03-23T04:38:27;7.37;;;6.53;;
7807;SDS011;3949;49.254;8.894;2024-03-23T04:40:57;10.53;;;6.33;;
7807;SDS011;3949;49.254;8.894;2024-03-23T04:43:23;9.33;;;6.83;;
7807;SDS011;3949;49.254;8.894;2024-03-23T04:45:49;8.67;;;6.20;;
7807;SDS011;3949;49.254;8.894;2024-03-23T04:48:15;7.27;;;6.30;;
7807;SDS011;3949;49.254;8.894;2024-03-23T04:50:41;7.80;;;6.47;;
7807;SDS011;3949;49.254;8.894;2024-03-23T04:53:07;9.27;;;6.57;;
7807;SDS011;3949;49.254;8.894;2024-03-23T04:55:33;8.47;;;6.30;;
7807;SDS011;3949;49.254;8.894;2024-03-23T04:58:02;9.50;;;6.87;;
7807;SDS011;3949;49.254;8.894;2024-03-23T05:00:30;9.03;;;7.33;;
7807;SDS011;3949;49.254;8.894;2024-03-23T05:02:56;7.23;;;6.33;;
7807;SDS011;3949;49.254;8.894;2024-03-23T05:05:25;9.53;;;6.60;;
7807;SDS011;3949;49.254;8.894;2024-03-23T05:07:51;6.60;;;5.80;;
7807;SDS011;3949;49.254;8.894;2024-03-23T05:10:17;7.67;;;6.73;;
7807;SDS011;3949;49.254;8.894;2024-03-23T05:12:47;7.57;;;6.00;;
7807;SDS011;3949;49.254;8.894;2024-03-23T05:15:13;6.97;;;5.60;;
7807;SDS011;3949;49.254;8.894;2024-03-23T05:17:42;8.67;;;6.03;;
7807;SDS011;3949;49.254;8.894;2024-03-23T05:20:08;8.63;;;5.83;;
7807;SDS011;3949;49.254;8.894;2024-03-23T05:22:37;8.47;;;5.87;;
7807;SDS011;3949;49.254;8.894;2024-03-23T05:25:06;6.87;;;5.43;;
7807;SDS011;3949;49.254;8.894;2024-03-23T05:27:33;7.17;;;5.23;;
7807;SDS011;3949;49.254;8.894;2024-03-23T05:29:59;7.33;;;5.43;;
7807;SDS011;3949;49.254;8.894;2024-03-23T05:32:28;7.63;;;5.10;;
7807;SDS011;3949;49.254;8.894;2024-03-23T05:34:55;4.80;;;4.30;;
7807;SDS011;3949;49.254;8.894;2024-03-23T05:37:22;5.27;;;4.07;;
7807;SDS011;3949;49.254;8.894;2024-03-23T05:39:48;5.77;;;4.40;;
7807;SDS011;3949;49.254;8.894;2024-03-23T05:42:19;4.37;;;3.70;;
7807;SDS011;3949;49.254;8.894;2024-03-23T05:44:46;4.13;;;3.50;;
7807;SDS011;3949;49.254;8.894;2024-03-23T05:47:12;4.30;;;3.90;;
7807;SDS011;3949;49.254;8.894;2024-03-23T05:49:41;4.63;;;3.60;;
7807;SDS011;3949;49.254;8.894;2024-03-23T05:52:08;4.43;;;3.23;;
7807;SDS011;3949;49.254;8.894;2024-03-23T05:54:34;6.87;;;3.03;;
7807;SDS011;3949;49.254;8.894;2024-03-23T05:57:00;3.87;;;3.30;;
7807;SDS011;3949;49.254;8.894;2024-03-23T05:59:29;4.73;;;3.50;;
7807;SDS011;3949;49.254;8.894;2024-03-23T06:01:56;3.80;;;3.20;;
7807;SDS011;3949;49.254;8.894;2024-03-23T06:04:22;6.03;;;3.20;;
7807;SDS011;3949;49.254;8.894;2024-03-23T06:06:48;2.93;;;2.63;;
7807;SDS011;3949;49.254;8.894;2024-03-23T06:09:14;3.27;;;2.93;;
7807;SDS011;3949;49.254;8.894;2024-03-23T06:11:40;3.60;;;2.83;;
7807;SDS011;3949;49.254;8.894;2024-03-23T06:14:06;3.27;;;2.37;;
7807;SDS011;3949;49.254;8.894;2024-03-23T06:16:32;2.07;;;1.87;;
7807;SDS011;3949;49.254;8.894;2024-03-23T06:18:58;2.47;;;2.13;;
7807;SDS011;3949;49.254;8.894;2024-03-23T06:21:24;1.63;;;1.53;;
7807;SDS011;3949;49.254;8.894;2024-03-23T06:23:53;1.90;;;1.80;;
7807;SDS011;3949;49.254;8.894;2024-03-23T06:26:19;2.00;;;1.90;;
7807;SDS011;3949;49.254;8.894;2024-03-23T06:28:48;1.80;;;1.70;;
7807;SDS011;3949;49.254;8.894;2024-03-23T06:31:15;2.13;;;1.90;;
7807;SDS011;3949;49.254;8.894;2024-03-23T06:33:41;2.27;;;1.57;;
7807;SDS011;3949;49.254;8.894;2024-03-23T06:36:09;1.70;;;1.60;;
7807;SDS011;3949;49.254;8.894;2024-03-23T06:38:35;2.17;;;1.40;;
7807;SDS011;3949;49.254;8.894;2024-03-23T06:41:03;1.57;;;1.47;;
7807;SDS011;3949;49.254;8.894;2024-03-23T06:43:29;2.40;;;1.70;;
7807;SDS011;3949;49.254;8.894;2024-03-23T06:45:55;1.53;;;1.43;;
7807;SDS011;3949;49.254;8.894;2024-03-23T06:48:21;1.83;;;1.73;;
7807;SDS011;3949;49.254;8.894;2024-03-23T06:50:54;2.57;;;1.37;;
7807;SDS011;3949;49.254;8.894;2024-03-23T06:53:20;1.60;;;1.50;;
7807;SDS011;3949;49.254;8.894;2024-03-23T06:55:49;1.90;;;1.70;;
7807;SDS011;3949;49.254;8.894;2024-03-23T06:58:16;2.37;;;1.30;;
7807;SDS011;3949;49.254;8.894;2024-03-23T07:00:42;2.27;;;1.43;;
7807;SDS011;3949;49.254;8.894;2024-03-23T07:03:08;1.40;;;1.30;;
7807;SDS011;3949;49.254;8.894;2024-03-23T07:05:34;1.40;;;1.30;;
7807;SDS011;3949;49.254;8.894;2024-03-23T07:08:00;1.30;;;1.20;;
7807;SDS011;3949;49.254;8.894;2024-03-23T07:10:26;1.47;;;1.37;;
7807;SDS011;3949;49.254;8.894;2024-03-23T07:12:52;1.20;;;1.10;;
7807;SDS011;3949;49.254;8.894;2024-03-23T07:15:18;1.23;;;1.13;;
7807;SDS011;3949;49.254;8.894;2024-03-23T07:17:46;1.37;;;1.27;;
7807;SDS011;3949;49.254;8.894;2024-03-23T07:20:12;1.27;;;1.17;;
7807;SDS011;3949;49.254;8.894;2024-03-23T07:22:38;1.33;;;1.23;;
7807;SDS011;3949;49.254;8.894;2024-03-23T07:25:04;1.03;;;0.93;;
7807;SDS011;3949;49.254;8.894;2024-03-23T07:27:33;1.37;;;1.10;;
7807;SDS011;3949;49.254;8.894;2024-03-23T07:29:59;0.80;;;0.80;;
7807;SDS011;3949;49.254;8.894;2024-03-23T07:32:26;1.20;;;0.70;;
7807;SDS011;3949;49.254;8.894;2024-03-23T07:34:57;0.60;;;0.60;;
7807;SDS011;3949;49.254;8.894;2024-03-23T07:37:22;0.80;;;0.80;;
7807;SDS011;3949;49.254;8.894;2024-03-23T07:39:51;1.80;;;0.80;;
7807;SDS011;3949;49.254;8.894;2024-03-23T07:42:17;1.60;;;0.73;;
7807;SDS011;3949;49.254;8.894;2024-03-23T07:44:43;0.50;;;0.50;;
7807;SDS011;3949;49.254;8.894;2024-03-23T07:47:09;0.20;;;0.20;;
7807;SDS011;3949;49.254;8.894;2024-03-23T07:49:35;0.10;;;0.10;;
7807;SDS011;3949;49.254;8.894;2024-03-23T07:52:01;0.10;;;0.10;;
7807;SDS011;3949;49.254;8.894;2024-03-23T07:54:26;0.40;;;0.40;;
7807;SDS011;3949;49.254;8.894;2024-03-23T07:56:53;0.47;;;0.43;;
7807;SDS011;3949;49.254;8.894;2024-03-23T07:59:19;0.53;;;0.53;;
7807;SDS011;3949;49.254;8.894;2024-03-23T08:01:48;0.50;;;0.50;;
7807;SDS011;3949;49.254;8.894;2024-03-23T08:04:14;0.53;;;0.40;;
7807;SDS011;3949;49.254;8.894;2024-03-23T08:06:40;0.60;;;0.43;;
7807;SDS011;3949;49.254;8.894;2024-03-23T08:09:06;0.57;;;0.50;;
7807;SDS011;3949;49.254;8.894;2024-03-23T08:11:32;1.13;;;0.63;;
7807;SDS011;3949;49.254;8.894;2024-03-23T08:14:01;0.97;;;0.83;;
7807;SDS011;3949;49.254;8.894;2024-03-23T08:16:31;1.03;;;0.70;;
7807;SDS011;3949;49.254;8.894;2024-03-23T08:18:59;0.63;;;0.60;;
7807;SDS011;3949;49.254;8.894;2024-03-23T08:21:25;2.20;;;0.80;;
7807;SDS011;3949;49.254;8.894;2024-03-23T08:23:51;1.50;;;1.00;;
7807;SDS011;3949;49.254;8.894;2024-03-23T08:26:17;2.07;;;1.10;;
7807;SDS011;3949;49.254;8.894;2024-03-23T08:28:43;1.10;;;1.00;;
7807;SDS011;3949;49.254;8.894;2024-03-23T08:31:10;2.50;;;1.30;;
7807;SDS011;3949;49.254;8.894;2024-03-23T08:33:37;5.43;;;1.27;;
7807;SDS011;3949;49.254;8.894;2024-03-23T08:36:04;1.37;;;1.27;;
7807;SDS011;3949;49.254;8.894;2024-03-23T08:38:30;2.20;;;1.40;;
7807;SDS011;3949;49.254;8.894;2024-03-23T08:41:03;1.67;;;1.23;;
7807;SDS011;3949;49.254;8.894;2024-03-23T08:43:30;2.50;;;1.10;;
7807;SDS011;3949;49.254;8.894;2024-03-23T08:48:34;2.57;;;2.07;;
7807;SDS011;3949;49.254;8.894;2024-03-23T08:51:04;4.10;;;2.00;;
7807;SDS011;3949;49.254;8.894;2024-03-23T08:53:30;3.93;;;1.83;;
7807;SDS011;3949;49.254;8.894;2024-03-23T08:55:56;3.33;;;1.93;;
7807;SDS011;3949;49.254;8.894;2024-03-23T08:58:23;3.77;;;1.50;;
7807;SDS011;3949;49.254;8.894;2024-03-23T09:00:53;2.17;;;1.50;;
7807;SDS011;3949;49.254;8.894;2024-03-23T09:03:21;3.23;;;1.53;;
7807;SDS011;3949;49.254;8.894;2024-03-23T09:05:47;2.80;;;1.43;;
7807;SDS011;3949;49.254;8.894;2024-03-23T09:08:13;4.57;;;1.70;;
7807;SDS011;3949;49.254;8.894;2024-03-23T09:10:39;3.13;;;1.50;;
7807;SDS011;3949;49.254;8.894;2024-03-23T09:13:05;3.90;;;1.73;;
7807;SDS011;3949;49.254;8.894;2024-03-23T09:15:44;3.73;;;2.00;;
7807;SDS011;3949;49.254;8.894;2024-03-23T09:18:11;2.77;;;1.77;;
7807;SDS011;3949;49.254;8.894;2024-03-23T09:20:37;3.37;;;1.80;;
7807;SDS011;3949;49.254;8.894;2024-03-23T09:23:03;2.93;;;1.63;;
7807;SDS011;3949;49.254;8.894;2024-03-23T09:25:29;1.60;;;1.47;;
7807;SDS011;3949;49.254;8.894;2024-03-23T09:27:57;4.40;;;2.23;;
7807;SDS011;3949;49.254;8.894;2024-03-23T09:30:23;3.40;;;1.90;;
7807;SDS011;3949;49.254;8.894;2024-03-23T09:32:49;4.43;;;2.10;;
7807;SDS011;3949;49.254;8.894;2024-03-23T09:35:15;5.07;;;1.93;;
7807;SDS011;3949;49.254;8.894;2024-03-23T09:37:44;5.03;;;1.80;;
7807;SDS011;3949;49.254;8.894;2024-03-23T09:40:10;2.67;;;1.80;;
7807;SDS011;3949;49.254;8.894;2024-03-23T09:42:37;3.83;;;1.80;;
7807;SDS011;3949;49.254;8.894;2024-03-23T09:45:05;4.13;;;1.90;;
7807;SDS011;3949;49.254;8.894;2024-03-23T09:47:32;4.53;;;1.80;;
7807;SDS011;3949;49.254;8.894;2024-03-23T09:49:58;5.17;;;2.00;;
7807;SDS011;3949;49.254;8.894;2024-03-23T09:52:26;2.17;;;1.60;;
7807;SDS011;3949;49.254;8.894;2024-03-23T09:54:52;2.93;;;1.67;;
7807;SDS011;3949;49.254;8.894;2024-03-23T09:57:18;5.00;;;2.20;;
7807;SDS011;3949;49.254;8.894;2024-03-23T09:59:44;4.53;;;2.40;;
7807;SDS011;3949;49.254;8.894;2024-03-23T10:02:10;3.87;;;2.00;;
7807;SDS011;3949;49.254;8.894;2024-03-23T10:04:41;3.07;;;2.20;;
7807;SDS011;3949;49.254;8.894;2024-03-23T10:07:15;3.97;;;2.30;;
7807;SDS011;3949;49.254;8.894;2024-03-23T10:09:44;4.33;;;2.40;;
7807;SDS011;3949;49.254;8.894;2024-03-23T10:12:10;4.00;;;2.30;;
7807;SDS011;3949;49.254;8.894;2024-03-23T10:14:37;3.17;;;2.20;;
7807;SDS011;3949;49.254;8.894;2024-03-23T10:17:22;5.97;;;2.20;;
7807;SDS011;3949;49.254;8.894;2024-03-23T10:19:51;4.30;;;2.37;;
7807;SDS011;3949;49.254;8.894;2024-03-23T10:22:22;5.70;;;2.77;;
7807;SDS011;3949;49.254;8.894;2024-03-23T10:24:49;6.40;;;2.27;;
7807;SDS011;3949;49.254;8.894;2024-03-23T10:27:19;5.10;;;2.30;;
7807;SDS011;3949;49.254;8.894;2024-03-23T10:29:46;3.87;;;2.73;;
7807;SDS011;3949;49.254;8.894;2024-03-23T10:32:13;6.00;;;2.53;;
7807;SDS011;3949;49.254;8.894;2024-03-23T10:34:40;5.83;;;2.93;;
7807;SDS011;3949;49.254;8.894;2024-03-23T10:37:09;6.20;;;2.53;;
7807;SDS011;3949;49.254;8.894;2024-03-23T10:39:36;6.50;;;2.77;;
7807;SDS011;3949;49.254;8.894;2024-03-23T10:42:03;4.33;;;2.30;;
7807;SDS011;3949;49.254;8.894;2024-03-23T10:44:29;2.40;;;1.70;;
7807;SDS011;3949;49.254;8.894;2024-03-23T10:46:58;5.53;;;2.30;;
7807;SDS011;3949;49.254;8.894;2024-03-23T10:49:34;4.33;;;2.00;;
7807;SDS011;3949;49.254;8.894;2024-03-23T10:52:01;5.43;;;2.50;;
7807;SDS011;3949;49.254;8.894;2024-03-23T10:54:28;7.27;;;3.33;;
7807;SDS011;3949;49.254;8.894;2024-03-23T10:59:40;2.60;;;2.10;;
7807;SDS011;3949;49.254;8.894;2024-03-23T11:02:06;4.70;;;2.20;;
7807;SDS011;3949;49.254;8.894;2024-03-23T11:04:34;3.80;;;2.20;;
7807;SDS011;3949;49.254;8.894;2024-03-23T11:07:00;3.50;;;2.20;;
7807;SDS011;3949;49.254;8.894;2024-03-23T11:09:39;3.97;;;2.40;;
7807;SDS011;3949;49.254;8.894;2024-03-23T11:14:50;5.43;;;2.10;;
7807;SDS011;3949;49.254;8.894;2024-03-23T11:17:23;3.90;;;2.20;;
7807;SDS011;3949;49.254;8.894;2024-03-23T11:25:18;5.43;;;2.30;;
7807;SDS011;3949;49.254;8.894;2024-03-23T11:27:49;5.27;;;2.40;;
7807;SDS011;3949;49.254;8.894;2024-03-23T11:30:19;3.73;;;2.23;;
7807;SDS011;3949;49.254;8.894;2024-03-23T11:32:47;5.50;;;2.20;;
7807;SDS011;3949;49.254;8.894;2024-03-23T11:35:32;4.23;;;1.90;;
7807;SDS011;3949;49.254;8.894;2024-03-23T11:40:35;3.77;;;2.10;;
7807;SDS011;3949;49.254;8.894;2024-03-23T11:43:04;4.33;;;2.30;;
7807;SDS011;3949;49.254;8.894;2024-03-23T11:45:34;2.97;;;1.80;;
7807;SDS011;3949;49.254;8.894;2024-03-23T11:50:39;3.87;;;2.20;;
7807;SDS011;3949;49.254;8.894;2024-03-23T11:58:06;3.60;;;1.80;;
7807;SDS011;3949;49.254;8.894;2024-03-23T12:00:33;3.27;;;2.00;;
7807;SDS011;3949;49.254;8.894;2024-03-23T12:03:00;4.87;;;2.23;;
7807;SDS011;3949;49.254;8.894;2024-03-23T12:05:26;2.50;;;1.80;;
7807;SDS011;3949;49.254;8.894;2024-03-23T12:07:52;4.30;;;1.87;;
7807;SDS011;3949;49.254;8.894;2024-03-23T12:10:21;3.20;;;2.20;;
7807;SDS011;3949;49.254;8.894;2024-03-23T12:12:58;3.20;;;1.97;;
7807;SDS011;3949;49.254;8.894;2024-03-23T12:15:24;2.87;;;2.00;;
7807;SDS011;3949;49.254;8.894;2024-03-23T12:17:53;4.17;;;1.90;;
7807;SDS011;3949;49.254;8.894;2024-03-23T12:20:31;4.03;;;1.70;;
7807;SDS011;3949;49.254;8.894;2024-03-23T12:25:52;1.87;;;1.20;;
7807;SDS011;3949;49.254;8.894;2024-03-23T12:28:18;2.07;;;1.30;;
7807;SDS011;3949;49.254;8.894;2024-03-23T12:30:44;4.87;;;1.50;;
7807;SDS011;3949;49.254;8.894;2024-03-23T12:33:10;4.17;;;1.57;;
7807;SDS011;3949;49.254;8.894;2024-03-23T12:35:39;2.63;;;1.30;;
7807;SDS011;3949;49.254;8.894;2024-03-23T12:38:04;2.20;;;1.47;;
7807;SDS011;3949;49.254;8.894;2024-03-23T12:40:33;4.80;;;3.07;;
7807;SDS011;3949;49.254;8.894;2024-03-23T12:42:59;3.87;;;3.13;;
7807;SDS011;3949;49.254;8.894;2024-03-23T12:45:27;5.33;;;2.20;;
7807;SDS011;3949;49.254;8.894;2024-03-23T12:47:53;6.33;;;4.20;;
7807;SDS011;3949;49.254;8.894;2024-03-23T12:50:20;5.07;;;3.20;;
7807;SDS011;3949;49.254;8.894;2024-03-23T12:52:46;5.13;;;2.83;;
7807;SDS011;3949;49.254;8.894;2024-03-23T12:55:12;4.00;;;2.57;;
7807;SDS011;3949;49.254;8.894;2024-03-23T12:57:38;8.20;;;6.17;;
7807;SDS011;3949;49.254;8.894;2024-03-23T13:00:07;8.00;;;6.60;;
7807;SDS011;3949;49.254;8.894;2024-03-23T13:02:36;12.60;;;8.57;;
7807;SDS011;3949;49.254;8.894;2024-03-23T13:05:03;7.60;;;3.83;;
7807;SDS011;3949;49.254;8.894;2024-03-23T13:07:29;7.13;;;4.03;;
7807;SDS011;3949;49.254;8.894;2024-03-23T13:09:55;3.40;;;2.17;;
7807;SDS011;3949;49.254;8.894;2024-03-23T13:12:22;3.57;;;3.03;;
7807;SDS011;3949;49.254;8.894;2024-03-23T13:14:48;3.50;;;2.10;;
7807;SDS011;3949;49.254;8.894;2024-03-23T13:17:14;4.63;;;2.53;;
7807;SDS011;3949;49.254;8.894;2024-03-23T13:19:40;3.20;;;2.57;;
7807;SDS011;3949;49.254;8.894;2024-03-23T13:22:06;3.63;;;2.43;;
7807;SDS011;3949;49.254;8.894;2024-03-23T13:24:32;3.73;;;2.20;;
7807;SDS011;3949;49.254;8.894;2024-03-23T13:26:58;3.60;;;2.10;;
7807;SDS011;3949;49.254;8.894;2024-03-23T13:29:24;2.60;;;1.93;;
7807;SDS011;3949;49.254;8.894;2024-03-23T13:31:51;3.13;;;1.90;;
7807;SDS011;3949;49.254;8.894;2024-03-23T13:34:17;3.70;;;2.20;;
7807;SDS011;3949;49.254;8.894;2024-03-23T13:36:46;3.53;;;1.30;;
7807;SDS011;3949;49.254;8.894;2024-03-23T13:39:15;2.63;;;1.23;;
7807;SDS011;3949;49.254;8.894;2024-03-23T13:41:42;4.67;;;2.90;;
7807;SDS011;3949;49.254;8.894;2024-03-23T13:44:09;1.97;;;0.87;;
7807;SDS011;3949;49.254;8.894;2024-03-23T13:46:41;1.73;;;1.20;;
7807;SDS011;3949;49.254;8.894;2024-03-23T13:49:16;1.67;;;1.47;;
7807;SDS011;3949;49.254;8.894;2024-03-23T13:51:47;1.77;;;1.50;;
7807;SDS011;3949;49.254;8.894;2024-03-23T13:54:13;2.73;;;1.57;;
7807;SDS011;3949;49.254;8.894;2024-03-23T13:56:39;3.23;;;1.43;;
7807;SDS011;3949;49.254;8.894;2024-03-23T13:59:05;4.50;;;1.80;;
7807;SDS011;3949;49.254;8.894;2024-03-23T14:01:31;4.27;;;1.80;;
7807;SDS011;3949;49.254;8.894;2024-03-23T14:03:57;1.60;;;1.30;;
7807;SDS011;3949;49.254;8.894;2024-03-23T14:06:23;3.63;;;1.60;;
7807;SDS011;3949;49.254;8.894;2024-03-23T14:08:49;3.60;;;1.40;;
7807;SDS011;3949;49.254;8.894;2024-03-23T14:11:17;2.00;;;1.20;;
7807;SDS011;3949;49.254;8.894;2024-03-23T14:13:43;1.50;;;1.40;;
7807;SDS011;3949;49.254;8.894;2024-03-23T14:16:09;1.57;;;1.40;;
7807;SDS011;3949;49.254;8.894;2024-03-23T14:18:35;2.87;;;1.60;;
7807;SDS011;3949;49.254;8.894;2024-03-23T14:21:02;2.13;;;1.70;;
7807;SDS011;3949;49.254;8.894;2024-03-23T14:23:28;1.47;;;0.90;;
7807;SDS011;3949;49.254;8.894;2024-03-23T14:25:55;1.07;;;1.00;;
7807;SDS011;3949;49.254;8.894;2024-03-23T14:28:21;0.83;;;0.83;;
7807;SDS011;3949;49.254;8.894;2024-03-23T14:30:47;1.33;;;0.77;;
7807;SDS011;3949;49.254;8.894;2024-03-23T14:33:14;4.73;;;1.67;;
7807;SDS011;3949;49.254;8.894;2024-03-23T14:35:43;0.67;;;0.67;;
7807;SDS011;3949;49.254;8.894;2024-03-23T14:38:09;1.20;;;0.97;;
7807;SDS011;3949;49.254;8.894;2024-03-23T14:40:35;1.30;;;0.93;;
7807;SDS011;3949;49.254;8.894;2024-03-23T14:43:04;1.17;;;0.70;;
7807;SDS011;3949;49.254;8.894;2024-03-23T14:45:30;2.60;;;1.17;;
7807;SDS011;3949;49.254;8.894;2024-03-23T14:47:58;1.53;;;0.90;;
7807;SDS011;3949;49.254;8.894;2024-03-23T14:50:25;1.27;;;0.80;;
7807;SDS011;3949;49.254;8.894;2024-03-23T14:52:51;1.10;;;0.80;;
7807;SDS011;3949;49.254;8.894;2024-03-23T14:55:19;0.70;;;0.57;;
7807;SDS011;3949;49.254;8.894;2024-03-23T14:57:45;0.70;;;0.60;;
7807;SDS011;3949;49.254;8.894;2024-03-23T15:00:11;3.20;;;1.30;;
7807;SDS011;3949;49.254;8.894;2024-03-23T15:02:38;2.40;;;1.20;;
7807;SDS011;3949;49.254;8.894;2024-03-23T15:05:04;2.40;;;1.73;;
7807;SDS011;3949;49.254;8.894;2024-03-23T15:07:32;2.43;;;1.30;;
7807;SDS011;3949;49.254;8.894;2024-03-23T15:09:58;3.30;;;1.10;;
7807;SDS011;3949;49.254;8.894;2024-03-23T15:12:24;4.07;;;1.40;;
7807;SDS011;3949;49.254;8.894;2024-03-23T15:14:50;2.47;;;1.13;;
7807;SDS011;3949;49.254;8.894;2024-03-23T15:17:16;1.10;;;0.73;;
7807;SDS011;3949;49.254;8.894;2024-03-23T15:19:43;2.03;;;0.90;;
7807;SDS011;3949;49.254;8.894;2024-03-23T15:22:09;4.87;;;1.10;;
7807;SDS011;3949;49.254;8.894;2024-03-23T15:24:35;3.17;;;1.40;;
7807;SDS011;3949;49.254;8.894;2024-03-23T15:27:02;1.20;;;1.10;;
7807;SDS011;3949;49.254;8.894;2024-03-23T15:29:28;1.60;;;0.70;;
7807;SDS011;3949;49.254;8.894;2024-03-23T15:31:57;1.97;;;1.00;;
7807;SDS011;3949;49.254;8.894;2024-03-23T15:34:25;2.80;;;0.77;;
7807;SDS011;3949;49.254;8.894;2024-03-23T15:36:51;0.97;;;0.70;;
7807;SDS011;3949;49.254;8.894;2024-03-23T15:39:20;1.70;;;1.10;;
7807;SDS011;3949;49.254;8.894;2024-03-23T15:41:47;3.93;;;1.10;;
7807;SDS011;3949;49.254;8.894;2024-03-23T15:44:13;2.30;;;0.87;;
7807;SDS011;3949;49.254;8.894;2024-03-23T15:46:39;2.10;;;1.20;;
7807;SDS011;3949;49.254;8.894;2024-03-23T15:49:06;1.30;;;1.07;;
7807;SDS011;3949;49.254;8.894;2024-03-23T15:51:32;1.20;;;0.77;;
7807;SDS011;3949;49.254;8.894;2024-03-23T15:53:59;1.07;;;0.90;;
7807;SDS011;3949;49.254;8.894;2024-03-23T15:56:25;1.57;;;0.90;;
7807;SDS011;3949;49.254;8.894;2024-03-23T15:58:51;1.97;;;1.00;;
7807;SDS011;3949;49.254;8.894;2024-03-23T16:01:20;6.60;;;3.93;;
7807;SDS011;3949;49.254;8.894;2024-03-23T16:03:46;12.17;;;6.27;;
7807;SDS011;3949;49.254;8.894;2024-03-23T16:06:12;10.53;;;5.03;;
7807;SDS011;3949;49.254;8.894;2024-03-23T16:08:42;12.03;;;5.50;;
7807;SDS011;3949;49.254;8.894;2024-03-23T16:11:10;3.27;;;2.70;;
7807;SDS011;3949;49.254;8.894;2024-03-23T16:13:36;1.20;;;0.80;;
7807;SDS011;3949;49.254;8.894;2024-03-23T16:16:05;1.90;;;1.47;;
7807;SDS011;3949;49.254;8.894;2024-03-23T16:18:32;1.97;;;0.70;;
7807;SDS011;3949;49.254;8.894;2024-03-23T16:20:59;1.87;;;1.20;;
7807;SDS011;3949;49.254;8.894;2024-03-23T16:23:26;1.60;;;1.30;;
7807;SDS011;3949;49.254;8.894;2024-03-23T16:25:53;4.13;;;1.50;;
7807;SDS011;3949;49.254;8.894;2024-03-23T16:33:20;1.57;;;1.33;;
7807;SDS011;3949;49.254;8.894;2024-03-23T16:35:54;1.77;;;1.23;;
7807;SDS011;3949;49.254;8.894;2024-03-23T16:38:20;1.30;;;1.20;;